sensor_id;sensor_type;location;lat;lon;timestamp;noise_LAeq;noise_LA_min;noise_LA_max;noise_LA01;noise_LA95
74260;Laerm;62630;55.874;37.516;2022-11-20T00:01:17;46.68;42.24;61.22;;
74260;Laerm;62630;55.874;37.516;2022-11-20T00:03:43;53.55;43.25;66.88;;
74260;Laerm;62630;55.874;37.516;2022-11-20T00:06:11;49.29;42.44;59.56;;
74260;Laerm;62630;55.874;37.516;2022-11-20T00:08:38;47.56;41.58;62.88;;
74260;Laerm;62630;55.874;37.516;2022-11-20T00:13:39;49.72;41.96;61.50;;
74260;Laerm;62630;55.874;37.516;2022-11-20T00:16:07;51.74;41.94;61.93;;
74260;Laerm;62630;55.874;37.516;2022-11-20T00:18:34;47.02;40.57;61.02;;
74260;Laerm;62630;55.874;37.516;2022-11-20T00:21:11;51.57;41.52;66.90;;
74260;Laerm;62630;55.874;37.516;2022-11-20T00:23:37;49.79;41.21;69.43;;
74260;Laerm;62630;55.874;37.516;2022-11-20T00:26:04;50.89;41.66;59.91;;
74260;Laerm;62630;55.874;37.516;2022-11-20T00:28:30;50.23;42.02;61.44;;
74260;Laerm;62630;55.874;37.516;2022-11-20T00:31:09;54.08;42.99;66.51;;
74260;Laerm;62630;55.874;37.516;2022-11-20T00:33:34;51.30;42.36;64.97;;
74260;Laerm;62630;55.874;37.516;2022-11-20T00:36:05;49.22;41.21;60.62;;
74260;Laerm;62630;55.874;37.516;2022-11-20T00:38:31;49.64;41.94;59.04;;
74260;Laerm;62630;55.874;37.516;2022-11-20T00:40:58;51.77;42.23;67.68;;
74260;Laerm;62630;55.874;37.516;2022-11-20T00:43:25;52.86;42.44;62.05;;
74260;Laerm;62630;55.874;37.516;2022-11-20T00:48:20;48.01;42.04;60.03;;
74260;Laerm;62630;55.874;37.516;2022-11-20T00:50:46;44.91;41.67;48.95;;
74260;Laerm;62630;55.874;37.516;2022-11-20T00:53:11;46.97;41.08;57.24;;
74260;Laerm;62630;55.874;37.516;2022-11-20T00:55:37;52.28;42.16;69.36;;
74260;Laerm;62630;55.874;37.516;2022-11-20T00:58:02;44.85;40.90;50.30;;
74260;Laerm;62630;55.874;37.516;2022-11-20T01:00:28;47.58;42.16;60.40;;
74260;Laerm;62630;55.874;37.516;2022-11-20T01:02:55;47.54;42.16;56.66;;
74260;Laerm;62630;55.874;37.516;2022-11-20T01:05:21;54.71;43.04;75.79;;
74260;Laerm;62630;55.874;37.516;2022-11-20T01:07:46;48.58;42.03;60.95;;
74260;Laerm;62630;55.874;37.516;2022-11-20T01:10:12;51.26;42.33;65.61;;
74260;Laerm;62630;55.874;37.516;2022-11-20T01:12:37;52.47;42.39;63.54;;
74260;Laerm;62630;55.874;37.516;2022-11-20T01:15:03;50.11;41.62;61.35;;
74260;Laerm;62630;55.874;37.516;2022-11-20T01:17:28;49.49;41.55;63.68;;
74260;Laerm;62630;55.874;37.516;2022-11-20T01:19:55;47.47;41.52;59.31;;
74260;Laerm;62630;55.874;37.516;2022-11-20T01:22:21;47.70;41.40;59.82;;
74260;Laerm;62630;55.874;37.516;2022-11-20T01:24:46;54.20;42.46;65.81;;
74260;Laerm;62630;55.874;37.516;2022-11-20T01:27:12;57.98;41.70;69.38;;
74260;Laerm;62630;55.874;37.516;2022-11-20T01:29:37;45.43;41.33;56.61;;
74260;Laerm;62630;55.874;37.516;2022-11-20T01:32:03;50.14;41.88;60.87;;
74260;Laerm;62630;55.874;37.516;2022-11-20T01:34:28;44.74;41.54;51.11;;
74260;Laerm;62630;55.874;37.516;2022-11-20T01:36:54;49.73;40.82;64.45;;
74260;Laerm;62630;55.874;37.516;2022-11-20T01:39:22;44.89;40.84;49.11;;
74260;Laerm;62630;55.874;37.516;2022-11-20T01:41:49;46.52;41.45;58.07;;
74260;Laerm;62630;55.874;37.516;2022-11-20T01:45:00;53.36;42.07;65.16;;
74260;Laerm;62630;55.874;37.516;2022-11-20T01:47:44;54.73;42.44;67.44;;
74260;Laerm;62630;55.874;37.516;2022-11-20T01:50:23;48.43;41.11;60.50;;
74260;Laerm;62630;55.874;37.516;2022-11-20T01:53:02;52.72;41.14;67.68;;
74260;Laerm;62630;55.874;37.516;2022-11-20T01:55:34;52.64;41.36;66.24;;
74260;Laerm;62630;55.874;37.516;2022-11-20T01:58:02;56.64;41.35;72.21;;
74260;Laerm;62630;55.874;37.516;2022-11-20T02:00:29;48.66;41.39;70.86;;
74260;Laerm;62630;55.874;37.516;2022-11-20T02:02:57;53.81;42.29;70.48;;
74260;Laerm;62630;55.874;37.516;2022-11-20T02:05:28;57.14;43.35;79.10;;
74260;Laerm;62630;55.874;37.516;2022-11-20T02:07:57;54.71;42.59;68.97;;
74260;Laerm;62630;55.874;37.516;2022-11-20T02:10:24;57.71;43.81;70.90;;
74260;Laerm;62630;55.874;37.516;2022-11-20T02:12:51;55.04;42.27;68.47;;
74260;Laerm;62630;55.874;37.516;2022-11-20T02:15:35;56.45;42.46;72.72;;
74260;Laerm;62630;55.874;37.516;2022-11-20T02:18:01;49.59;42.55;63.12;;
74260;Laerm;62630;55.874;37.516;2022-11-20T02:20:26;48.71;42.17;62.24;;
74260;Laerm;62630;55.874;37.516;2022-11-20T02:25:27;57.49;43.92;69.43;;
74260;Laerm;62630;55.874;37.516;2022-11-20T02:27:53;55.42;43.80;67.28;;
74260;Laerm;62630;55.874;37.516;2022-11-20T02:30:18;53.45;43.64;68.03;;
74260;Laerm;62630;55.874;37.516;2022-11-20T02:32:44;56.92;43.60;74.39;;
74260;Laerm;62630;55.874;37.516;2022-11-20T02:37:58;46.62;42.10;53.34;;
74260;Laerm;62630;55.874;37.516;2022-11-20T02:40:24;52.06;43.04;63.30;;
74260;Laerm;62630;55.874;37.516;2022-11-20T02:42:54;53.46;42.46;67.78;;
74260;Laerm;62630;55.874;37.516;2022-11-20T02:45:20;53.51;42.63;64.41;;
74260;Laerm;62630;55.874;37.516;2022-11-20T02:47:45;56.98;44.03;78.57;;
74260;Laerm;62630;55.874;37.516;2022-11-20T02:50:11;53.50;42.24;67.38;;
74260;Laerm;62630;55.874;37.516;2022-11-20T02:52:36;56.63;43.60;70.45;;
74260;Laerm;62630;55.874;37.516;2022-11-20T02:55:02;52.10;42.44;73.03;;
74260;Laerm;62630;55.874;37.516;2022-11-20T02:57:28;52.89;42.76;70.48;;
74260;Laerm;62630;55.874;37.516;2022-11-20T02:59:53;49.03;42.13;67.79;;
74260;Laerm;62630;55.874;37.516;2022-11-20T03:02:19;46.32;42.14;55.32;;
74260;Laerm;62630;55.874;37.516;2022-11-20T03:04:44;54.95;44.22;69.92;;
74260;Laerm;62630;55.874;37.516;2022-11-20T03:07:10;52.84;42.33;67.34;;
74260;Laerm;62630;55.874;37.516;2022-11-20T03:09:35;51.67;42.43;63.27;;
74260;Laerm;62630;55.874;37.516;2022-11-20T03:12:01;46.88;42.74;62.43;;
74260;Laerm;62630;55.874;37.516;2022-11-20T03:14:26;56.94;43.21;72.56;;
74260;Laerm;62630;55.874;37.516;2022-11-20T03:16:52;54.22;43.05;64.35;;
74260;Laerm;62630;55.874;37.516;2022-11-20T03:19:17;54.29;43.02;66.87;;
74260;Laerm;62630;55.874;37.516;2022-11-20T03:21:43;58.31;45.75;69.41;;
74260;Laerm;62630;55.874;37.516;2022-11-20T03:24:08;56.77;43.64;71.91;;
74260;Laerm;62630;55.874;37.516;2022-11-20T03:26:34;55.38;43.12;70.40;;
74260;Laerm;62630;55.874;37.516;2022-11-20T03:29:02;55.57;43.50;66.31;;
74260;Laerm;62630;55.874;37.516;2022-11-20T03:31:31;50.99;43.18;64.21;;
74260;Laerm;62630;55.874;37.516;2022-11-20T03:33:58;53.36;42.48;65.37;;
74260;Laerm;62630;55.874;37.516;2022-11-20T03:36:25;52.10;43.24;63.23;;
74260;Laerm;62630;55.874;37.516;2022-11-20T03:38:50;57.94;44.23;71.85;;
74260;Laerm;62630;55.874;37.516;2022-11-20T03:41:21;54.21;43.41;75.20;;
74260;Laerm;62630;55.874;37.516;2022-11-20T03:43:55;54.74;43.57;67.60;;
74260;Laerm;62630;55.874;37.516;2022-11-20T03:46:21;57.21;43.78;83.07;;
74260;Laerm;62630;55.874;37.516;2022-11-20T03:48:47;59.14;44.49;75.56;;
74260;Laerm;62630;55.874;37.516;2022-11-20T03:51:14;56.87;45.65;67.41;;
74260;Laerm;62630;55.874;37.516;2022-11-20T03:53:41;55.12;44.46;67.49;;
74260;Laerm;62630;55.874;37.516;2022-11-20T03:56:07;51.01;42.68;73.66;;
74260;Laerm;62630;55.874;37.516;2022-11-20T03:58:37;52.74;44.45;62.04;;
74260;Laerm;62630;55.874;37.516;2022-11-20T04:01:12;59.87;43.33;84.89;;
74260;Laerm;62630;55.874;37.516;2022-11-20T04:03:39;56.24;43.89;70.40;;
74260;Laerm;62630;55.874;37.516;2022-11-20T04:06:10;55.77;43.81;65.67;;
74260;Laerm;62630;55.874;37.516;2022-11-20T04:08:36;55.59;43.14;68.22;;
74260;Laerm;62630;55.874;37.516;2022-11-20T04:11:25;56.57;45.45;68.14;;
74260;Laerm;62630;55.874;37.516;2022-11-20T04:13:57;56.87;46.60;72.53;;
74260;Laerm;62630;55.874;37.516;2022-11-20T04:16:24;58.17;45.43;69.20;;
74260;Laerm;62630;55.874;37.516;2022-11-20T04:18:57;57.64;45.18;71.65;;
74260;Laerm;62630;55.874;37.516;2022-11-20T04:21:24;54.19;45.75;65.07;;
74260;Laerm;62630;55.874;37.516;2022-11-20T04:23:50;55.05;47.30;66.24;;
74260;Laerm;62630;55.874;37.516;2022-11-20T04:26:16;68.26;50.52;79.25;;
74260;Laerm;62630;55.874;37.516;2022-11-20T04:28:42;57.26;48.45;67.09;;
74260;Laerm;62630;55.874;37.516;2022-11-20T04:31:16;54.94;46.08;66.14;;
74260;Laerm;62630;55.874;37.516;2022-11-20T04:33:42;61.33;48.35;87.25;;
74260;Laerm;62630;55.874;37.516;2022-11-20T04:36:13;65.47;47.01;79.08;;
74260;Laerm;62630;55.874;37.516;2022-11-20T04:38:40;57.62;47.04;68.15;;
74260;Laerm;62630;55.874;37.516;2022-11-20T04:41:07;56.73;44.42;70.18;;
74260;Laerm;62630;55.874;37.516;2022-11-20T04:43:34;56.58;46.33;66.76;;
74260;Laerm;62630;55.874;37.516;2022-11-20T04:46:00;57.41;45.74;68.46;;
74260;Laerm;62630;55.874;37.516;2022-11-20T04:48:26;56.11;45.32;65.94;;
74260;Laerm;62630;55.874;37.516;2022-11-20T04:50:52;52.27;44.16;64.71;;
74260;Laerm;62630;55.874;37.516;2022-11-20T04:53:19;56.22;44.69;68.55;;
74260;Laerm;62630;55.874;37.516;2022-11-20T04:55:45;57.92;47.79;68.78;;
74260;Laerm;62630;55.874;37.516;2022-11-20T04:58:10;50.62;45.73;60.86;;
74260;Laerm;62630;55.874;37.516;2022-11-20T05:00:36;62.45;46.43;87.82;;
74260;Laerm;62630;55.874;37.516;2022-11-20T05:03:02;57.83;44.60;72.88;;
74260;Laerm;62630;55.874;37.516;2022-11-20T05:05:27;53.43;45.04;62.98;;
74260;Laerm;62630;55.874;37.516;2022-11-20T05:07:56;58.01;46.10;69.84;;
74260;Laerm;62630;55.874;37.516;2022-11-20T05:10:21;54.90;45.49;69.24;;
74260;Laerm;62630;55.874;37.516;2022-11-20T05:12:46;58.23;44.69;74.09;;
74260;Laerm;62630;55.874;37.516;2022-11-20T05:15:12;58.10;46.64;72.05;;
74260;Laerm;62630;55.874;37.516;2022-11-20T05:17:37;57.97;47.95;74.73;;
74260;Laerm;62630;55.874;37.516;2022-11-20T05:20:03;59.16;45.11;83.35;;
74260;Laerm;62630;55.874;37.516;2022-11-20T05:22:29;63.53;47.00;84.66;;
74260;Laerm;62630;55.874;37.516;2022-11-20T05:24:54;60.04;48.56;75.29;;
74260;Laerm;62630;55.874;37.516;2022-11-20T05:27:19;59.44;46.40;72.31;;
74260;Laerm;62630;55.874;37.516;2022-11-20T05:29:45;56.72;47.11;73.42;;
74260;Laerm;62630;55.874;37.516;2022-11-20T05:32:10;54.41;44.55;68.99;;
74260;Laerm;62630;55.874;37.516;2022-11-20T05:34:36;56.71;46.91;68.11;;
74260;Laerm;62630;55.874;37.516;2022-11-20T05:37:02;57.42;46.14;69.99;;
74260;Laerm;62630;55.874;37.516;2022-11-20T05:39:28;59.21;48.52;71.10;;
74260;Laerm;62630;55.874;37.516;2022-11-20T05:41:53;55.55;45.41;66.43;;
74260;Laerm;62630;55.874;37.516;2022-11-20T05:44:38;61.09;49.98;77.12;;
74260;Laerm;62630;55.874;37.516;2022-11-20T05:47:03;58.45;46.95;67.35;;
74260;Laerm;62630;55.874;37.516;2022-11-20T05:49:29;58.36;45.75;71.29;;
74260;Laerm;62630;55.874;37.516;2022-11-20T05:51:55;55.28;46.31;66.89;;
74260;Laerm;62630;55.874;37.516;2022-11-20T05:54:20;58.20;48.27;68.41;;
74260;Laerm;62630;55.874;37.516;2022-11-20T05:56:45;56.39;46.10;67.69;;
74260;Laerm;62630;55.874;37.516;2022-11-20T05:59:11;54.27;45.13;63.55;;
74260;Laerm;62630;55.874;37.516;2022-11-20T06:01:36;55.96;45.99;63.71;;
74260;Laerm;62630;55.874;37.516;2022-11-20T06:04:02;58.45;46.97;67.72;;
74260;Laerm;62630;55.874;37.516;2022-11-20T06:06:27;53.75;45.69;68.79;;
74260;Laerm;62630;55.874;37.516;2022-11-20T06:08:54;52.70;45.38;63.81;;
74260;Laerm;62630;55.874;37.516;2022-11-20T06:11:20;56.50;46.14;79.80;;
74260;Laerm;62630;55.874;37.516;2022-11-20T06:13:46;58.45;47.54;69.64;;
74260;Laerm;62630;55.874;37.516;2022-11-20T06:16:13;58.16;46.79;67.33;;
74260;Laerm;62630;55.874;37.516;2022-11-20T06:18:39;53.75;45.96;74.55;;
74260;Laerm;62630;55.874;37.516;2022-11-20T06:21:10;60.12;49.41;81.68;;
74260;Laerm;62630;55.874;37.516;2022-11-20T06:23:36;55.00;48.51;63.79;;
74260;Laerm;62630;55.874;37.516;2022-11-20T06:26:03;57.95;50.03;73.61;;
74260;Laerm;62630;55.874;37.516;2022-11-20T06:28:29;62.26;51.85;75.63;;
74260;Laerm;62630;55.874;37.516;2022-11-20T06:30:55;61.49;49.79;83.87;;
74260;Laerm;62630;55.874;37.516;2022-11-20T06:33:20;57.21;49.15;67.47;;
74260;Laerm;62630;55.874;37.516;2022-11-20T06:35:46;59.63;50.97;70.99;;
74260;Laerm;62630;55.874;37.516;2022-11-20T06:38:11;54.42;48.32;61.73;;
74260;Laerm;62630;55.874;37.516;2022-11-20T06:40:40;56.24;47.31;67.16;;
74260;Laerm;62630;55.874;37.516;2022-11-20T06:43:05;58.81;48.58;75.42;;
74260;Laerm;62630;55.874;37.516;2022-11-20T06:45:31;66.20;47.85;91.69;;
74260;Laerm;62630;55.874;37.516;2022-11-20T06:47:59;57.09;48.02;72.14;;
74260;Laerm;62630;55.874;37.516;2022-11-20T06:50:24;56.32;46.43;65.13;;
74260;Laerm;62630;55.874;37.516;2022-11-20T06:52:50;58.61;47.81;68.24;;
74260;Laerm;62630;55.874;37.516;2022-11-20T06:55:15;56.69;47.15;68.44;;
74260;Laerm;62630;55.874;37.516;2022-11-20T06:57:41;58.87;48.38;71.03;;
74260;Laerm;62630;55.874;37.516;2022-11-20T07:00:07;58.19;45.71;76.92;;
74260;Laerm;62630;55.874;37.516;2022-11-20T07:02:32;57.00;47.94;68.97;;
74260;Laerm;62630;55.874;37.516;2022-11-20T07:04:59;58.95;47.18;78.81;;
74260;Laerm;62630;55.874;37.516;2022-11-20T07:07:24;59.15;51.29;70.34;;
74260;Laerm;62630;55.874;37.516;2022-11-20T07:09:50;61.48;48.84;83.63;;
74260;Laerm;62630;55.874;37.516;2022-11-20T07:12:16;56.61;47.21;67.83;;
74260;Laerm;62630;55.874;37.516;2022-11-20T07:14:41;58.62;48.68;65.85;;
74260;Laerm;62630;55.874;37.516;2022-11-20T07:17:07;55.46;47.01;63.49;;
74260;Laerm;62630;55.874;37.516;2022-11-20T07:19:32;59.13;46.72;71.98;;
74260;Laerm;62630;55.874;37.516;2022-11-20T07:21:58;57.59;50.03;66.90;;
74260;Laerm;62630;55.874;37.516;2022-11-20T07:24:23;57.79;46.70;67.09;;
74260;Laerm;62630;55.874;37.516;2022-11-20T07:26:49;57.69;45.49;67.12;;
74260;Laerm;62630;55.874;37.516;2022-11-20T07:29:15;58.35;47.09;69.37;;
74260;Laerm;62630;55.874;37.516;2022-11-20T07:31:42;57.74;45.71;66.38;;
74260;Laerm;62630;55.874;37.516;2022-11-20T07:34:08;57.67;48.09;66.41;;
74260;Laerm;62630;55.874;37.516;2022-11-20T07:36:34;59.17;50.19;68.01;;
74260;Laerm;62630;55.874;37.516;2022-11-20T07:38:59;57.97;48.55;69.99;;
74260;Laerm;62630;55.874;37.516;2022-11-20T07:41:24;56.11;48.86;63.78;;
74260;Laerm;62630;55.874;37.516;2022-11-20T07:43:50;59.42;48.29;69.49;;
74260;Laerm;62630;55.874;37.516;2022-11-20T07:46:15;59.61;49.70;71.13;;
74260;Laerm;62630;55.874;37.516;2022-11-20T07:48:41;62.66;49.97;85.91;;
74260;Laerm;62630;55.874;37.516;2022-11-20T07:51:06;58.88;49.42;67.97;;
74260;Laerm;62630;55.874;37.516;2022-11-20T07:53:32;57.88;47.73;64.65;;
74260;Laerm;62630;55.874;37.516;2022-11-20T07:56:01;61.78;48.25;87.72;;
74260;Laerm;62630;55.874;37.516;2022-11-20T07:58:29;57.00;47.17;70.49;;
74260;Laerm;62630;55.874;37.516;2022-11-20T08:00:55;60.07;50.01;70.64;;
74260;Laerm;62630;55.874;37.516;2022-11-20T08:03:21;59.78;47.73;68.14;;
74260;Laerm;62630;55.874;37.516;2022-11-20T08:05:46;56.49;47.73;66.08;;
74260;Laerm;62630;55.874;37.516;2022-11-20T08:08:12;58.48;47.68;72.22;;
74260;Laerm;62630;55.874;37.516;2022-11-20T08:10:37;59.23;50.60;66.26;;
74260;Laerm;62630;55.874;37.516;2022-11-20T08:13:03;59.14;48.67;68.65;;
74260;Laerm;62630;55.874;37.516;2022-11-20T08:15:49;60.07;50.35;69.42;;
74260;Laerm;62630;55.874;37.516;2022-11-20T08:18:16;59.33;49.69;68.71;;
74260;Laerm;62630;55.874;37.516;2022-11-20T08:20:42;61.92;51.12;73.02;;
74260;Laerm;62630;55.874;37.516;2022-11-20T08:23:08;62.16;54.81;73.43;;
74260;Laerm;62630;55.874;37.516;2022-11-20T08:25:35;69.91;58.10;78.93;;
74260;Laerm;62630;55.874;37.516;2022-11-20T08:28:06;66.09;52.26;76.72;;
74260;Laerm;62630;55.874;37.516;2022-11-20T08:30:32;60.65;50.56;72.98;;
74260;Laerm;62630;55.874;37.516;2022-11-20T08:33:06;61.52;47.35;77.55;;
74260;Laerm;62630;55.874;37.516;2022-11-20T08:35:34;60.49;48.02;78.16;;
74260;Laerm;62630;55.874;37.516;2022-11-20T08:38:01;58.77;50.85;73.50;;
74260;Laerm;62630;55.874;37.516;2022-11-20T08:40:26;60.32;51.54;75.88;;
74260;Laerm;62630;55.874;37.516;2022-11-20T08:42:52;62.33;49.89;82.54;;
74260;Laerm;62630;55.874;37.516;2022-11-20T08:45:18;58.82;49.05;76.01;;
74260;Laerm;62630;55.874;37.516;2022-11-20T08:47:44;64.11;52.37;79.60;;
74260;Laerm;62630;55.874;37.516;2022-11-20T08:50:12;60.50;49.10;69.00;;
74260;Laerm;62630;55.874;37.516;2022-11-20T08:52:38;60.52;52.78;68.09;;
74260;Laerm;62630;55.874;37.516;2022-11-20T08:55:04;60.60;51.78;75.19;;
74260;Laerm;62630;55.874;37.516;2022-11-20T08:57:34;62.61;51.85;77.76;;
74260;Laerm;62630;55.874;37.516;2022-11-20T08:59:59;68.08;56.57;78.46;;
74260;Laerm;62630;55.874;37.516;2022-11-20T09:02:25;61.68;52.46;76.88;;
74260;Laerm;62630;55.874;37.516;2022-11-20T09:04:50;62.91;53.29;74.81;;
74260;Laerm;62630;55.874;37.516;2022-11-20T09:07:16;64.16;54.00;75.73;;
74260;Laerm;62630;55.874;37.516;2022-11-20T09:09:42;58.85;48.70;67.61;;
74260;Laerm;62630;55.874;37.516;2022-11-20T09:12:07;60.84;50.17;69.25;;
74260;Laerm;62630;55.874;37.516;2022-11-20T09:14:32;59.43;49.30;70.53;;
74260;Laerm;62630;55.874;37.516;2022-11-20T09:16:59;61.00;52.06;71.32;;
74260;Laerm;62630;55.874;37.516;2022-11-20T09:19:24;60.98;52.29;68.69;;
74260;Laerm;62630;55.874;37.516;2022-11-20T09:21:50;59.11;52.37;67.99;;
74260;Laerm;62630;55.874;37.516;2022-11-20T09:24:16;59.52;51.99;66.14;;
74260;Laerm;62630;55.874;37.516;2022-11-20T09:26:42;60.16;50.38;67.09;;
74260;Laerm;62630;55.874;37.516;2022-11-20T09:29:07;59.53;51.72;70.46;;
74260;Laerm;62630;55.874;37.516;2022-11-20T09:31:32;63.88;53.02;74.23;;
74260;Laerm;62630;55.874;37.516;2022-11-20T09:33:58;60.31;53.95;67.90;;
74260;Laerm;62630;55.874;37.516;2022-11-20T09:36:23;65.72;51.40;75.29;;
74260;Laerm;62630;55.874;37.516;2022-11-20T09:38:49;59.52;49.69;67.25;;
74260;Laerm;62630;55.874;37.516;2022-11-20T09:47:11;61.93;51.63;70.65;;
74260;Laerm;62630;55.874;37.516;2022-11-20T09:55:45;66.25;56.44;78.57;;
74260;Laerm;62630;55.874;37.516;2022-11-20T09:58:40;64.34;56.64;81.33;;
74260;Laerm;62630;55.874;37.516;2022-11-20T10:01:30;72.04;58.70;91.19;;
74260;Laerm;62630;55.874;37.516;2022-11-20T10:04:03;63.01;52.77;80.11;;
74260;Laerm;62630;55.874;37.516;2022-11-20T10:06:54;63.36;50.87;75.25;;
74260;Laerm;62630;55.874;37.516;2022-11-20T10:15:12;63.02;52.12;82.74;;
74260;Laerm;62630;55.874;37.516;2022-11-20T10:23:48;62.91;54.19;72.45;;
74260;Laerm;62630;55.874;37.516;2022-11-20T10:29:36;62.88;51.70;74.58;;
74260;Laerm;62630;55.874;37.516;2022-11-20T10:32:11;63.99;50.32;85.78;;
74260;Laerm;62630;55.874;37.516;2022-11-20T10:34:46;67.58;52.44;89.68;;
74260;Laerm;62630;55.874;37.516;2022-11-20T10:37:25;64.20;51.47;80.19;;
74260;Laerm;62630;55.874;37.516;2022-11-20T10:40:02;63.01;52.34;77.35;;
74260;Laerm;62630;55.874;37.516;2022-11-20T10:42:41;64.76;54.93;76.41;;
74260;Laerm;62630;55.874;37.516;2022-11-20T10:47:42;63.43;53.58;71.12;;
74260;Laerm;62630;55.874;37.516;2022-11-20T10:50:14;63.40;55.81;81.55;;
74260;Laerm;62630;55.874;37.516;2022-11-20T10:53:31;65.57;55.67;82.11;;
74260;Laerm;62630;55.874;37.516;2022-11-20T10:55:46;65.20;56.96;74.78;;
74260;Laerm;62630;55.874;37.516;2022-11-20T10:58:18;63.36;56.77;71.49;;
74260;Laerm;62630;55.874;37.516;2022-11-20T11:00:46;64.30;56.73;72.41;;
74260;Laerm;62630;55.874;37.516;2022-11-20T11:03:25;63.63;53.80;71.13;;
74260;Laerm;62630;55.874;37.516;2022-11-20T11:06:06;59.73;51.12;69.20;;
74260;Laerm;62630;55.874;37.516;2022-11-20T11:08:40;65.05;53.01;87.37;;
74260;Laerm;62630;55.874;37.516;2022-11-20T11:11:27;63.86;53.83;83.30;;
74260;Laerm;62630;55.874;37.516;2022-11-20T11:14:07;62.39;51.37;68.86;;
74260;Laerm;62630;55.874;37.516;2022-11-20T11:16:33;64.04;54.47;71.44;;
74260;Laerm;62630;55.874;37.516;2022-11-20T11:19:07;61.84;52.85;72.97;;
74260;Laerm;62630;55.874;37.516;2022-11-20T11:21:37;62.81;52.03;71.45;;
74260;Laerm;62630;55.874;37.516;2022-11-20T11:24:19;64.07;53.41;77.93;;
74260;Laerm;62630;55.874;37.516;2022-11-20T11:27:00;65.01;52.95;74.64;;
74260;Laerm;62630;55.874;37.516;2022-11-20T11:29:31;62.51;52.14;70.63;;
74260;Laerm;62630;55.874;37.516;2022-11-20T11:32:23;62.80;52.90;78.69;;
74260;Laerm;62630;55.874;37.516;2022-11-20T11:35:06;61.79;51.59;70.39;;
74260;Laerm;62630;55.874;37.516;2022-11-20T11:37:37;63.69;53.52;76.24;;
74260;Laerm;62630;55.874;37.516;2022-11-20T11:40:05;64.29;55.96;71.94;;
74260;Laerm;62630;55.874;37.516;2022-11-20T11:42:31;63.51;54.59;70.68;;
74260;Laerm;62630;55.874;37.516;2022-11-20T11:44:59;62.91;54.61;70.14;;
74260;Laerm;62630;55.874;37.516;2022-11-20T11:52:58;69.12;53.70;86.61;;
74260;Laerm;62630;55.874;37.516;2022-11-20T11:55:36;63.42;56.53;74.30;;
74260;Laerm;62630;55.874;37.516;2022-11-20T12:00:56;62.72;52.74;71.86;;
74260;Laerm;62630;55.874;37.516;2022-11-20T12:03:28;62.47;53.84;73.03;;
74260;Laerm;62630;55.874;37.516;2022-11-20T12:06:09;62.00;52.55;73.90;;
74260;Laerm;62630;55.874;37.516;2022-11-20T12:08:47;64.08;54.95;74.16;;
74260;Laerm;62630;55.874;37.516;2022-11-20T12:11:21;61.42;51.05;70.70;;
74260;Laerm;62630;55.874;37.516;2022-11-20T12:13:58;61.59;53.75;70.05;;
74260;Laerm;62630;55.874;37.516;2022-11-20T12:16:27;64.38;54.99;71.63;;
74260;Laerm;62630;55.874;37.516;2022-11-20T12:18:55;67.03;53.84;88.22;;
74260;Laerm;62630;55.874;37.516;2022-11-20T12:21:46;62.31;51.09;73.90;;
74260;Laerm;62630;55.874;37.516;2022-11-20T12:30:35;62.65;54.35;70.77;;
74260;Laerm;62630;55.874;37.516;2022-11-20T12:41:56;63.23;54.61;75.85;;
74260;Laerm;62630;55.874;37.516;2022-11-20T12:53:40;60.00;50.95;69.15;;
74260;Laerm;62630;55.874;37.516;2022-11-20T13:01:50;61.54;52.99;68.32;;
74260;Laerm;62630;55.874;37.516;2022-11-20T13:07:06;60.55;51.58;70.84;;
74260;Laerm;62630;55.874;37.516;2022-11-20T13:09:38;60.01;51.49;72.07;;
74260;Laerm;62630;55.874;37.516;2022-11-20T13:12:17;61.91;52.09;75.10;;
74260;Laerm;62630;55.874;37.516;2022-11-20T13:14:55;61.65;50.94;74.94;;
74260;Laerm;62630;55.874;37.516;2022-11-20T13:17:33;61.91;51.67;79.52;;
74260;Laerm;62630;55.874;37.516;2022-11-20T13:20:04;61.76;52.06;71.67;;
74260;Laerm;62630;55.874;37.516;2022-11-20T13:22:51;61.05;52.34;69.94;;
74260;Laerm;62630;55.874;37.516;2022-11-20T13:25:32;75.00;50.97;97.26;;
74260;Laerm;62630;55.874;37.516;2022-11-20T13:28:02;63.04;53.39;76.32;;
74260;Laerm;62630;55.874;37.516;2022-11-20T13:30:30;62.29;51.48;73.57;;
74260;Laerm;62630;55.874;37.516;2022-11-20T13:33:03;67.11;50.89;91.68;;
74260;Laerm;62630;55.874;37.516;2022-11-20T13:35:36;60.39;50.05;71.87;;
74260;Laerm;62630;55.874;37.516;2022-11-20T13:38:09;62.09;50.38;77.71;;
74260;Laerm;62630;55.874;37.516;2022-11-20T13:40:37;57.07;50.41;64.84;;
74260;Laerm;62630;55.874;37.516;2022-11-20T13:43:07;61.28;51.67;72.15;;
74260;Laerm;62630;55.874;37.516;2022-11-20T13:45:35;63.61;52.15;87.34;;
74260;Laerm;62630;55.874;37.516;2022-11-20T13:48:19;59.63;50.61;76.55;;
74260;Laerm;62630;55.874;37.516;2022-11-20T13:57:38;61.34;50.35;74.82;;
74260;Laerm;62630;55.874;37.516;2022-11-20T14:00:22;61.11;49.75;70.85;;
74260;Laerm;62630;55.874;37.516;2022-11-20T14:03:23;62.15;53.79;71.99;;
74260;Laerm;62630;55.874;37.516;2022-11-20T14:06:01;63.48;51.76;76.90;;
74260;Laerm;62630;55.874;37.516;2022-11-20T14:08:47;58.78;49.49;68.95;;
74260;Laerm;62630;55.874;37.516;2022-11-20T14:14:32;68.73;53.23;82.78;;
74260;Laerm;62630;55.874;37.516;2022-11-20T14:20:06;59.86;49.87;68.25;;
74260;Laerm;62630;55.874;37.516;2022-11-20T14:22:38;60.81;51.17;72.84;;
74260;Laerm;62630;55.874;37.516;2022-11-20T14:25:18;59.59;48.97;71.17;;
74260;Laerm;62630;55.874;37.516;2022-11-20T14:27:51;61.17;50.34;71.49;;
74260;Laerm;62630;55.874;37.516;2022-11-20T14:32:57;60.64;49.98;71.82;;
74260;Laerm;62630;55.874;37.516;2022-11-20T14:35:27;60.21;52.03;67.96;;
74260;Laerm;62630;55.874;37.516;2022-11-20T14:38:02;58.94;50.78;68.23;;
74260;Laerm;62630;55.874;37.516;2022-11-20T14:40:31;61.30;50.26;71.52;;
74260;Laerm;62630;55.874;37.516;2022-11-20T14:43:20;59.70;50.88;74.88;;
74260;Laerm;62630;55.874;37.516;2022-11-20T14:46:00;61.08;47.96;79.38;;
74260;Laerm;62630;55.874;37.516;2022-11-20T14:48:45;63.18;54.29;72.52;;
74260;Laerm;62630;55.874;37.516;2022-11-20T14:59:46;58.87;50.54;68.49;;
74260;Laerm;62630;55.874;37.516;2022-11-20T15:02:15;60.67;51.21;71.62;;
74260;Laerm;62630;55.874;37.516;2022-11-20T15:04:56;60.57;51.99;68.80;;
74260;Laerm;62630;55.874;37.516;2022-11-20T15:07:28;61.88;53.74;75.02;;
74260;Laerm;62630;55.874;37.516;2022-11-20T15:10:06;59.93;50.40;72.89;;
74260;Laerm;62630;55.874;37.516;2022-11-20T15:12:34;59.91;50.19;66.83;;
74260;Laerm;62630;55.874;37.516;2022-11-20T15:15:01;60.78;52.31;78.21;;
74260;Laerm;62630;55.874;37.516;2022-11-20T15:17:28;61.69;53.54;71.79;;
74260;Laerm;62630;55.874;37.516;2022-11-20T15:19:54;60.74;50.64;70.73;;
74260;Laerm;62630;55.874;37.516;2022-11-20T15:22:20;58.31;49.19;68.16;;
74260;Laerm;62630;55.874;37.516;2022-11-20T15:24:46;61.84;51.23;81.50;;
74260;Laerm;62630;55.874;37.516;2022-11-20T15:27:11;59.04;49.70;68.32;;
74260;Laerm;62630;55.874;37.516;2022-11-20T15:29:37;58.86;49.35;72.01;;